SEA weather

Seattle Tacoma International Airport
Seattle, Washington, United States

Public forecast

Using degrees Fahrenheit for public forecast. Weather courtesy of forecast.io.

Current aviation weather report (METAR) for Seattle Tacoma International Airport

Retrieved 2020/04/03 18:53 UTC (43 minutes ago):

KSEA 031853Z 21017G24KT 10SM SCT024 BKN065 07/00 A3007 RMK AO2 SLP191 T00720000

Aviation forecast (TAF) for Seattle Tacoma International Airport

Retrieved 2020/04/03 18:22 UTC (1 hour ago):

TAF KSEA 031720Z 0318/0424 21010G20KT P6SM SCT015 BKN060 FM032100 22010KT P6SM VCSH SCT030 BKN060 FM040300 33005KT P6SM -SHRA SCT035 BKN050 FM040900 04004KT P6SM VCSH BKN030 BKN150 FM041200 05004KT P6SM SCT030 BKN150